sensor_id;sensor_type;location;lat;lon;timestamp;P1;durP1;ratioP1;P2;durP2;ratioP2
47960;SDS011;33721;48.852;9.936;2023-04-03T00:01:26;7.75;;;4.60;;
47960;SDS011;33721;48.852;9.936;2023-04-03T00:03:52;8.05;;;4.10;;
47960;SDS011;33721;48.852;9.936;2023-04-03T00:06:18;8.77;;;4.20;;
47960;SDS011;33721;48.852;9.936;2023-04-03T00:08:44;9.32;;;4.30;;
47960;SDS011;33721;48.852;9.936;2023-04-03T00:11:09;10.75;;;4.15;;
47960;SDS011;33721;48.852;9.936;2023-04-03T00:13:35;6.90;;;3.70;;
47960;SDS011;33721;48.852;9.936;2023-04-03T00:16:02;10.70;;;4.38;;
47960;SDS011;33721;48.852;9.936;2023-04-03T00:18:28;8.82;;;4.20;;
47960;SDS011;33721;48.852;9.936;2023-04-03T00:20:54;8.25;;;4.03;;
47960;SDS011;33721;48.852;9.936;2023-04-03T00:23:20;9.15;;;4.25;;
47960;SDS011;33721;48.852;9.936;2023-04-03T00:25:45;8.43;;;3.45;;
47960;SDS011;33721;48.852;9.936;2023-04-03T00:28:11;6.70;;;3.60;;
47960;SDS011;33721;48.852;9.936;2023-04-03T00:30:37;8.77;;;4.20;;
47960;SDS011;33721;48.852;9.936;2023-04-03T00:33:02;10.35;;;4.43;;
47960;SDS011;33721;48.852;9.936;2023-04-03T00:35:28;13.05;;;4.47;;
47960;SDS011;33721;48.852;9.936;2023-04-03T00:37:55;11.50;;;5.60;;
47960;SDS011;33721;48.852;9.936;2023-04-03T00:40:21;7.07;;;4.10;;
47960;SDS011;33721;48.852;9.936;2023-04-03T00:42:49;8.15;;;4.05;;
47960;SDS011;33721;48.852;9.936;2023-04-03T00:45:25;7.75;;;4.00;;
47960;SDS011;33721;48.852;9.936;2023-04-03T00:48:05;11.63;;;4.22;;
47960;SDS011;33721;48.852;9.936;2023-04-03T00:50:35;8.35;;;3.83;;
47960;SDS011;33721;48.852;9.936;2023-04-03T00:53:03;7.95;;;4.05;;
47960;SDS011;33721;48.852;9.936;2023-04-03T00:55:30;8.63;;;4.25;;
47960;SDS011;33721;48.852;9.936;2023-04-03T00:57:56;9.75;;;4.43;;
47960;SDS011;33721;48.852;9.936;2023-04-03T01:00:23;10.07;;;4.15;;
47960;SDS011;33721;48.852;9.936;2023-04-03T01:02:50;9.00;;;4.20;;
47960;SDS011;33721;48.852;9.936;2023-04-03T01:05:16;7.70;;;4.20;;
47960;SDS011;33721;48.852;9.936;2023-04-03T01:07:43;7.90;;;4.15;;
47960;SDS011;33721;48.852;9.936;2023-04-03T01:10:11;7.85;;;3.88;;
47960;SDS011;33721;48.852;9.936;2023-04-03T01:12:40;8.35;;;3.70;;
47960;SDS011;33721;48.852;9.936;2023-04-03T01:15:11;7.43;;;3.78;;
47960;SDS011;33721;48.852;9.936;2023-04-03T01:25:56;7.07;;;3.53;;
47960;SDS011;33721;48.852;9.936;2023-04-03T01:28:34;7.03;;;3.85;;
47960;SDS011;33721;48.852;9.936;2023-04-03T01:33:41;8.10;;;3.67;;
47960;SDS011;33721;48.852;9.936;2023-04-03T01:36:07;10.38;;;3.60;;
47960;SDS011;33721;48.852;9.936;2023-04-03T01:38:34;8.90;;;3.83;;
47960;SDS011;33721;48.852;9.936;2023-04-03T01:41:00;8.15;;;3.85;;
47960;SDS011;33721;48.852;9.936;2023-04-03T01:43:26;7.07;;;3.90;;
47960;SDS011;33721;48.852;9.936;2023-04-03T01:45:51;9.88;;;4.25;;
47960;SDS011;33721;48.852;9.936;2023-04-03T01:48:19;11.43;;;4.00;;
47960;SDS011;33721;48.852;9.936;2023-04-03T01:50:45;7.25;;;3.22;;
47960;SDS011;33721;48.852;9.936;2023-04-03T01:53:11;8.48;;;3.80;;
47960;SDS011;33721;48.852;9.936;2023-04-03T01:55:37;7.88;;;4.03;;
47960;SDS011;33721;48.852;9.936;2023-04-03T01:58:02;7.15;;;3.58;;
47960;SDS011;33721;48.852;9.936;2023-04-03T02:00:28;7.25;;;3.90;;
47960;SDS011;33721;48.852;9.936;2023-04-03T02:02:53;7.13;;;3.75;;
47960;SDS011;33721;48.852;9.936;2023-04-03T02:05:19;9.27;;;3.85;;
47960;SDS011;33721;48.852;9.936;2023-04-03T02:07:45;9.02;;;3.47;;
47960;SDS011;33721;48.852;9.936;2023-04-03T02:10:10;6.03;;;3.58;;
47960;SDS011;33721;48.852;9.936;2023-04-03T02:12:37;6.07;;;3.30;;
47960;SDS011;33721;48.852;9.936;2023-04-03T02:15:02;8.90;;;3.75;;
47960;SDS011;33721;48.852;9.936;2023-04-03T02:17:28;9.65;;;3.88;;
47960;SDS011;33721;48.852;9.936;2023-04-03T02:19:54;6.03;;;3.50;;
47960;SDS011;33721;48.852;9.936;2023-04-03T02:22:20;9.75;;;3.70;;
47960;SDS011;33721;48.852;9.936;2023-04-03T02:24:45;9.35;;;3.45;;
47960;SDS011;33721;48.852;9.936;2023-04-03T02:27:11;6.75;;;3.47;;
47960;SDS011;33721;48.852;9.936;2023-04-03T02:29:37;9.77;;;3.72;;
47960;SDS011;33721;48.852;9.936;2023-04-03T02:32:03;6.10;;;3.53;;
47960;SDS011;33721;48.852;9.936;2023-04-03T02:34:29;6.90;;;3.70;;
47960;SDS011;33721;48.852;9.936;2023-04-03T02:36:55;6.57;;;3.60;;
47960;SDS011;33721;48.852;9.936;2023-04-03T02:39:21;8.70;;;4.20;;
47960;SDS011;33721;48.852;9.936;2023-04-03T02:41:46;8.52;;;3.60;;
47960;SDS011;33721;48.852;9.936;2023-04-03T02:44:12;12.98;;;4.15;;
47960;SDS011;33721;48.852;9.936;2023-04-03T02:46:38;7.50;;;3.67;;
47960;SDS011;33721;48.852;9.936;2023-04-03T02:49:03;6.82;;;3.40;;
47960;SDS011;33721;48.852;9.936;2023-04-03T02:51:29;7.32;;;3.60;;
47960;SDS011;33721;48.852;9.936;2023-04-03T02:53:55;7.05;;;3.78;;
47960;SDS011;33721;48.852;9.936;2023-04-03T02:56:21;7.80;;;3.63;;
47960;SDS011;33721;48.852;9.936;2023-04-03T02:58:47;6.95;;;3.30;;
47960;SDS011;33721;48.852;9.936;2023-04-03T03:01:13;7.32;;;3.63;;
47960;SDS011;33721;48.852;9.936;2023-04-03T03:03:38;8.27;;;3.78;;
47960;SDS011;33721;48.852;9.936;2023-04-03T03:06:14;7.72;;;3.90;;
47960;SDS011;33721;48.852;9.936;2023-04-03T03:08:41;8.15;;;3.78;;
47960;SDS011;33721;48.852;9.936;2023-04-03T03:11:07;7.63;;;3.88;;
47960;SDS011;33721;48.852;9.936;2023-04-03T03:13:33;7.65;;;4.28;;
47960;SDS011;33721;48.852;9.936;2023-04-03T03:15:59;9.02;;;3.92;;
47960;SDS011;33721;48.852;9.936;2023-04-03T03:18:25;8.88;;;3.50;;
47960;SDS011;33721;48.852;9.936;2023-04-03T03:20:52;6.78;;;3.80;;
47960;SDS011;33721;48.852;9.936;2023-04-03T03:23:18;9.45;;;3.75;;
47960;SDS011;33721;48.852;9.936;2023-04-03T03:25:44;6.80;;;3.90;;
47960;SDS011;33721;48.852;9.936;2023-04-03T03:28:10;9.90;;;3.63;;
47960;SDS011;33721;48.852;9.936;2023-04-03T03:30:36;7.00;;;3.83;;
47960;SDS011;33721;48.852;9.936;2023-04-03T03:33:02;6.70;;;3.60;;
47960;SDS011;33721;48.852;9.936;2023-04-03T03:35:28;8.70;;;3.92;;
47960;SDS011;33721;48.852;9.936;2023-04-03T03:37:54;6.90;;;3.88;;
47960;SDS011;33721;48.852;9.936;2023-04-03T03:40:19;8.77;;;3.72;;
47960;SDS011;33721;48.852;9.936;2023-04-03T03:42:45;7.03;;;3.55;;
47960;SDS011;33721;48.852;9.936;2023-04-03T03:45:11;6.75;;;3.35;;
47960;SDS011;33721;48.852;9.936;2023-04-03T03:47:36;8.27;;;3.60;;
47960;SDS011;33721;48.852;9.936;2023-04-03T03:50:02;7.32;;;3.80;;
47960;SDS011;33721;48.852;9.936;2023-04-03T03:52:28;9.57;;;3.65;;
47960;SDS011;33721;48.852;9.936;2023-04-03T03:54:55;6.57;;;3.40;;
47960;SDS011;33721;48.852;9.936;2023-04-03T03:57:21;8.98;;;3.58;;
47960;SDS011;33721;48.852;9.936;2023-04-03T03:59:47;6.32;;;3.58;;
47960;SDS011;33721;48.852;9.936;2023-04-03T04:02:14;5.85;;;3.13;;
47960;SDS011;33721;48.852;9.936;2023-04-03T04:04:40;6.78;;;3.30;;
47960;SDS011;33721;48.852;9.936;2023-04-03T04:07:05;5.45;;;3.30;;
47960;SDS011;33721;48.852;9.936;2023-04-03T04:09:31;6.72;;;3.72;;
47960;SDS011;33721;48.852;9.936;2023-04-03T04:11:57;6.43;;;3.13;;
47960;SDS011;33721;48.852;9.936;2023-04-03T04:14:22;6.05;;;3.28;;
47960;SDS011;33721;48.852;9.936;2023-04-03T04:16:48;5.90;;;3.17;;
47960;SDS011;33721;48.852;9.936;2023-04-03T04:19:14;6.47;;;2.92;;
47960;SDS011;33721;48.852;9.936;2023-04-03T04:21:40;5.70;;;3.15;;
47960;SDS011;33721;48.852;9.936;2023-04-03T04:24:06;9.15;;;3.30;;
47960;SDS011;33721;48.852;9.936;2023-04-03T04:26:32;6.88;;;3.33;;
47960;SDS011;33721;48.852;9.936;2023-04-03T04:28:58;5.88;;;3.60;;
47960;SDS011;33721;48.852;9.936;2023-04-03T04:31:24;6.50;;;3.20;;
47960;SDS011;33721;48.852;9.936;2023-04-03T04:33:50;7.82;;;3.40;;
47960;SDS011;33721;48.852;9.936;2023-04-03T04:36:16;7.82;;;3.13;;
47960;SDS011;33721;48.852;9.936;2023-04-03T04:38:42;6.80;;;3.08;;
47960;SDS011;33721;48.852;9.936;2023-04-03T04:41:07;7.35;;;3.47;;
47960;SDS011;33721;48.852;9.936;2023-04-03T04:43:33;6.75;;;3.42;;
47960;SDS011;33721;48.852;9.936;2023-04-03T04:46:02;7.10;;;3.30;;
47960;SDS011;33721;48.852;9.936;2023-04-03T04:48:34;5.97;;;3.13;;
47960;SDS011;33721;48.852;9.936;2023-04-03T04:51:00;6.07;;;3.22;;
47960;SDS011;33721;48.852;9.936;2023-04-03T04:53:26;6.38;;;3.33;;
47960;SDS011;33721;48.852;9.936;2023-04-03T04:55:52;7.25;;;3.60;;
47960;SDS011;33721;48.852;9.936;2023-04-03T04:58:18;5.82;;;3.28;;
47960;SDS011;33721;48.852;9.936;2023-04-03T05:00:46;5.07;;;3.10;;
47960;SDS011;33721;48.852;9.936;2023-04-03T05:03:12;7.10;;;3.28;;
47960;SDS011;33721;48.852;9.936;2023-04-03T05:05:38;6.78;;;3.20;;
47960;SDS011;33721;48.852;9.936;2023-04-03T05:08:04;7.32;;;3.30;;
47960;SDS011;33721;48.852;9.936;2023-04-03T05:10:30;6.22;;;3.40;;
47960;SDS011;33721;48.852;9.936;2023-04-03T05:12:56;6.85;;;3.30;;
47960;SDS011;33721;48.852;9.936;2023-04-03T05:15:22;7.53;;;3.47;;
47960;SDS011;33721;48.852;9.936;2023-04-03T05:17:48;5.75;;;3.25;;
47960;SDS011;33721;48.852;9.936;2023-04-03T05:20:13;6.97;;;3.60;;
47960;SDS011;33721;48.852;9.936;2023-04-03T05:22:39;10.40;;;4.20;;
47960;SDS011;33721;48.852;9.936;2023-04-03T05:25:05;6.63;;;3.63;;
47960;SDS011;33721;48.852;9.936;2023-04-03T05:27:31;9.15;;;3.97;;
47960;SDS011;33721;48.852;9.936;2023-04-03T05:29:57;9.18;;;4.00;;
47960;SDS011;33721;48.852;9.936;2023-04-03T05:32:23;9.43;;;4.20;;
47960;SDS011;33721;48.852;9.936;2023-04-03T05:34:50;8.70;;;3.97;;
47960;SDS011;33721;48.852;9.936;2023-04-03T05:37:15;8.75;;;4.30;;
47960;SDS011;33721;48.852;9.936;2023-04-03T05:39:42;8.55;;;3.78;;
47960;SDS011;33721;48.852;9.936;2023-04-03T05:42:07;8.73;;;3.65;;
47960;SDS011;33721;48.852;9.936;2023-04-03T05:44:33;6.40;;;3.50;;
47960;SDS011;33721;48.852;9.936;2023-04-03T05:47:00;7.38;;;3.60;;
47960;SDS011;33721;48.852;9.936;2023-04-03T05:49:25;6.60;;;3.35;;
47960;SDS011;33721;48.852;9.936;2023-04-03T05:51:51;8.73;;;3.70;;
47960;SDS011;33721;48.852;9.936;2023-04-03T05:54:29;10.25;;;4.30;;
47960;SDS011;33721;48.852;9.936;2023-04-03T05:56:55;7.32;;;3.78;;
47960;SDS011;33721;48.852;9.936;2023-04-03T05:59:20;8.70;;;3.70;;
47960;SDS011;33721;48.852;9.936;2023-04-03T06:01:47;14.60;;;4.13;;
47960;SDS011;33721;48.852;9.936;2023-04-03T06:04:12;6.68;;;3.63;;
47960;SDS011;33721;48.852;9.936;2023-04-03T06:06:42;7.43;;;3.88;;
47960;SDS011;33721;48.852;9.936;2023-04-03T06:09:08;9.23;;;4.05;;
47960;SDS011;33721;48.852;9.936;2023-04-03T06:11:34;8.15;;;4.22;;
47960;SDS011;33721;48.852;9.936;2023-04-03T06:14:00;8.80;;;4.25;;
47960;SDS011;33721;48.852;9.936;2023-04-03T06:16:26;8.68;;;4.15;;
47960;SDS011;33721;48.852;9.936;2023-04-03T06:18:52;9.45;;;3.88;;
47960;SDS011;33721;48.852;9.936;2023-04-03T06:21:17;7.35;;;3.53;;
47960;SDS011;33721;48.852;9.936;2023-04-03T06:23:43;8.48;;;3.80;;
47960;SDS011;33721;48.852;9.936;2023-04-03T06:26:08;10.10;;;3.60;;
47960;SDS011;33721;48.852;9.936;2023-04-03T06:28:34;9.70;;;3.90;;
47960;SDS011;33721;48.852;9.936;2023-04-03T06:31:00;9.32;;;3.85;;
47960;SDS011;33721;48.852;9.936;2023-04-03T06:33:25;10.68;;;3.80;;
47960;SDS011;33721;48.852;9.936;2023-04-03T06:35:55;7.43;;;3.53;;
47960;SDS011;33721;48.852;9.936;2023-04-03T06:38:22;7.32;;;4.00;;
47960;SDS011;33721;48.852;9.936;2023-04-03T06:40:47;11.70;;;4.93;;
47960;SDS011;33721;48.852;9.936;2023-04-03T06:43:13;9.02;;;4.22;;
47960;SDS011;33721;48.852;9.936;2023-04-03T06:45:38;9.30;;;4.15;;
47960;SDS011;33721;48.852;9.936;2023-04-03T06:48:04;12.70;;;4.30;;
47960;SDS011;33721;48.852;9.936;2023-04-03T06:50:30;7.80;;;4.40;;
47960;SDS011;33721;48.852;9.936;2023-04-03T06:52:56;9.65;;;3.97;;
47960;SDS011;33721;48.852;9.936;2023-04-03T06:55:22;10.68;;;4.32;;
47960;SDS011;33721;48.852;9.936;2023-04-03T06:57:47;12.07;;;4.40;;
47960;SDS011;33721;48.852;9.936;2023-04-03T07:00:13;12.25;;;4.45;;
47960;SDS011;33721;48.852;9.936;2023-04-03T07:02:39;9.32;;;4.07;;
47960;SDS011;33721;48.852;9.936;2023-04-03T07:05:05;11.55;;;4.75;;
47960;SDS011;33721;48.852;9.936;2023-04-03T07:07:32;11.27;;;4.25;;
47960;SDS011;33721;48.852;9.936;2023-04-03T07:09:59;13.63;;;5.15;;
47960;SDS011;33721;48.852;9.936;2023-04-03T07:12:25;12.63;;;4.10;;
47960;SDS011;33721;48.852;9.936;2023-04-03T07:14:51;10.63;;;4.13;;
47960;SDS011;33721;48.852;9.936;2023-04-03T07:17:17;11.10;;;4.30;;
47960;SDS011;33721;48.852;9.936;2023-04-03T07:19:42;13.60;;;5.63;;
47960;SDS011;33721;48.852;9.936;2023-04-03T07:22:08;10.75;;;5.07;;
47960;SDS011;33721;48.852;9.936;2023-04-03T07:24:34;13.75;;;4.85;;
47960;SDS011;33721;48.852;9.936;2023-04-03T07:27:00;11.57;;;5.00;;
47960;SDS011;33721;48.852;9.936;2023-04-03T07:29:26;8.98;;;4.80;;
47960;SDS011;33721;48.852;9.936;2023-04-03T07:31:52;10.43;;;4.50;;
47960;SDS011;33721;48.852;9.936;2023-04-03T07:34:18;9.25;;;4.53;;
47960;SDS011;33721;48.852;9.936;2023-04-03T07:36:43;10.43;;;4.03;;
47960;SDS011;33721;48.852;9.936;2023-04-03T07:39:09;11.15;;;4.50;;
47960;SDS011;33721;48.852;9.936;2023-04-03T07:41:36;10.95;;;4.82;;
47960;SDS011;33721;48.852;9.936;2023-04-03T07:44:01;8.48;;;4.40;;
47960;SDS011;33721;48.852;9.936;2023-04-03T07:46:27;11.45;;;4.75;;
47960;SDS011;33721;48.852;9.936;2023-04-03T07:48:53;11.88;;;4.70;;
47960;SDS011;33721;48.852;9.936;2023-04-03T07:51:19;10.32;;;4.60;;
47960;SDS011;33721;48.852;9.936;2023-04-03T07:53:45;14.45;;;5.50;;
47960;SDS011;33721;48.852;9.936;2023-04-03T07:56:11;13.25;;;5.13;;
47960;SDS011;33721;48.852;9.936;2023-04-03T07:58:36;14.77;;;6.05;;
47960;SDS011;33721;48.852;9.936;2023-04-03T08:01:02;14.82;;;5.32;;
47960;SDS011;33721;48.852;9.936;2023-04-03T08:03:28;12.95;;;5.15;;
47960;SDS011;33721;48.852;9.936;2023-04-03T08:05:54;14.90;;;5.25;;
47960;SDS011;33721;48.852;9.936;2023-04-03T08:08:26;14.38;;;6.15;;
47960;SDS011;33721;48.852;9.936;2023-04-03T08:10:54;9.90;;;5.38;;
47960;SDS011;33721;48.852;9.936;2023-04-03T08:13:24;11.25;;;5.43;;
47960;SDS011;33721;48.852;9.936;2023-04-03T08:15:49;15.18;;;6.10;;
47960;SDS011;33721;48.852;9.936;2023-04-03T08:18:16;16.38;;;7.35;;
47960;SDS011;33721;48.852;9.936;2023-04-03T08:20:42;12.02;;;6.10;;
47960;SDS011;33721;48.852;9.936;2023-04-03T08:23:08;10.75;;;6.22;;
47960;SDS011;33721;48.852;9.936;2023-04-03T08:25:37;13.90;;;5.93;;
47960;SDS011;33721;48.852;9.936;2023-04-03T08:28:04;12.57;;;6.13;;
47960;SDS011;33721;48.852;9.936;2023-04-03T08:30:30;12.15;;;6.43;;
47960;SDS011;33721;48.852;9.936;2023-04-03T08:32:56;12.48;;;5.90;;
47960;SDS011;33721;48.852;9.936;2023-04-03T08:35:21;15.00;;;5.28;;
47960;SDS011;33721;48.852;9.936;2023-04-03T08:37:47;10.88;;;5.20;;
47960;SDS011;33721;48.852;9.936;2023-04-03T08:40:14;11.63;;;4.85;;
47960;SDS011;33721;48.852;9.936;2023-04-03T08:42:44;10.07;;;5.30;;
47960;SDS011;33721;48.852;9.936;2023-04-03T08:45:17;10.45;;;5.53;;
47960;SDS011;33721;48.852;9.936;2023-04-03T08:48:12;19.27;;;7.43;;
47960;SDS011;33721;48.852;9.936;2023-04-03T08:50:46;23.10;;;7.90;;
47960;SDS011;33721;48.852;9.936;2023-04-03T08:53:23;17.77;;;6.70;;
47960;SDS011;33721;48.852;9.936;2023-04-03T08:55:53;10.30;;;4.97;;
47960;SDS011;33721;48.852;9.936;2023-04-03T08:58:30;8.07;;;4.15;;
47960;SDS011;33721;48.852;9.936;2023-04-03T09:03:48;15.73;;;6.55;;
47960;SDS011;33721;48.852;9.936;2023-04-03T09:06:23;11.82;;;4.82;;
47960;SDS011;33721;48.852;9.936;2023-04-03T09:17:35;14.38;;;6.40;;
47960;SDS011;33721;48.852;9.936;2023-04-03T09:22:43;10.85;;;4.70;;
47960;SDS011;33721;48.852;9.936;2023-04-03T09:25:29;6.65;;;3.90;;
47960;SDS011;33721;48.852;9.936;2023-04-03T09:27:59;8.20;;;3.90;;
47960;SDS011;33721;48.852;9.936;2023-04-03T09:30:26;6.40;;;3.47;;
47960;SDS011;33721;48.852;9.936;2023-04-03T09:32:53;6.85;;;3.67;;
47960;SDS011;33721;48.852;9.936;2023-04-03T09:35:27;7.50;;;4.15;;
47960;SDS011;33721;48.852;9.936;2023-04-03T09:38:18;14.00;;;5.97;;
47960;SDS011;33721;48.852;9.936;2023-04-03T09:40:50;8.70;;;4.30;;
47960;SDS011;33721;48.852;9.936;2023-04-03T09:43:29;9.15;;;3.88;;
47960;SDS011;33721;48.852;9.936;2023-04-03T09:49:04;8.05;;;3.53;;
47960;SDS011;33721;48.852;9.936;2023-04-03T09:51:36;10.45;;;3.22;;
47960;SDS011;33721;48.852;9.936;2023-04-03T09:54:24;6.75;;;3.35;;
47960;SDS011;33721;48.852;9.936;2023-04-03T09:57:07;7.50;;;3.22;;
47960;SDS011;33721;48.852;9.936;2023-04-03T09:59:37;9.15;;;3.70;;
47960;SDS011;33721;48.852;9.936;2023-04-03T10:04:56;7.30;;;3.50;;
47960;SDS011;33721;48.852;9.936;2023-04-03T10:07:26;8.10;;;3.75;;
47960;SDS011;33721;48.852;9.936;2023-04-03T10:09:59;5.65;;;3.03;;
47960;SDS011;33721;48.852;9.936;2023-04-03T10:12:42;8.98;;;3.92;;
47960;SDS011;33721;48.852;9.936;2023-04-03T10:15:12;8.38;;;3.42;;
47960;SDS011;33721;48.852;9.936;2023-04-03T10:20:22;12.55;;;4.80;;
47960;SDS011;33721;48.852;9.936;2023-04-03T10:35:57;5.93;;;3.60;;
47960;SDS011;33721;48.852;9.936;2023-04-03T10:41:13;7.07;;;3.10;;
47960;SDS011;33721;48.852;9.936;2023-04-03T10:46:38;9.15;;;3.40;;
47960;SDS011;33721;48.852;9.936;2023-04-03T10:49:11;8.60;;;3.80;;
47960;SDS011;33721;48.852;9.936;2023-04-03T10:51:48;8.32;;;5.00;;
47960;SDS011;33721;48.852;9.936;2023-04-03T10:54:25;5.10;;;3.35;;
47960;SDS011;33721;48.852;9.936;2023-04-03T10:56:57;7.43;;;2.60;;
47960;SDS011;33721;48.852;9.936;2023-04-03T10:59:30;10.43;;;2.78;;
47960;SDS011;33721;48.852;9.936;2023-04-03T11:02:00;6.28;;;2.83;;
47960;SDS011;33721;48.852;9.936;2023-04-03T11:04:33;6.97;;;3.45;;
47960;SDS011;33721;48.852;9.936;2023-04-03T11:07:02;7.43;;;3.78;;
47960;SDS011;33721;48.852;9.936;2023-04-03T11:09:40;4.88;;;2.47;;
47960;SDS011;33721;48.852;9.936;2023-04-03T11:12:23;5.90;;;2.78;;
47960;SDS011;33721;48.852;9.936;2023-04-03T11:14:53;6.00;;;3.00;;
47960;SDS011;33721;48.852;9.936;2023-04-03T11:17:23;7.90;;;3.17;;
47960;SDS011;33721;48.852;9.936;2023-04-03T11:20:14;4.90;;;2.70;;
47960;SDS011;33721;48.852;9.936;2023-04-03T11:22:57;6.30;;;2.90;;
47960;SDS011;33721;48.852;9.936;2023-04-03T11:25:31;6.35;;;2.50;;
47960;SDS011;33721;48.852;9.936;2023-04-03T11:28:03;4.68;;;2.58;;
47960;SDS011;33721;48.852;9.936;2023-04-03T11:30:33;7.00;;;2.83;;
47960;SDS011;33721;48.852;9.936;2023-04-03T11:35:47;6.78;;;2.65;;
47960;SDS011;33721;48.852;9.936;2023-04-03T11:38:24;7.18;;;2.58;;
47960;SDS011;33721;48.852;9.936;2023-04-03T11:40:54;7.05;;;2.70;;
47960;SDS011;33721;48.852;9.936;2023-04-03T11:45:57;8.48;;;2.90;;
47960;SDS011;33721;48.852;9.936;2023-04-03T11:51:01;5.22;;;2.33;;
47960;SDS011;33721;48.852;9.936;2023-04-03T11:53:47;4.18;;;2.33;;
47960;SDS011;33721;48.852;9.936;2023-04-03T12:01:45;9.57;;;2.92;;
47960;SDS011;33721;48.852;9.936;2023-04-03T12:04:12;6.72;;;3.00;;
47960;SDS011;33721;48.852;9.936;2023-04-03T12:11:59;7.82;;;2.85;;
47960;SDS011;33721;48.852;9.936;2023-04-03T12:14:26;5.95;;;2.92;;
47960;SDS011;33721;48.852;9.936;2023-04-03T12:16:53;7.18;;;3.00;;
47960;SDS011;33721;48.852;9.936;2023-04-03T12:19:37;5.93;;;3.05;;
47960;SDS011;33721;48.852;9.936;2023-04-03T12:22:16;7.20;;;2.90;;
47960;SDS011;33721;48.852;9.936;2023-04-03T12:24:46;7.03;;;2.80;;
47960;SDS011;33721;48.852;9.936;2023-04-03T12:27:27;7.18;;;2.88;;
47960;SDS011;33721;48.852;9.936;2023-04-03T12:30:27;5.30;;;2.97;;
47960;SDS011;33721;48.852;9.936;2023-04-03T12:38:41;6.53;;;2.40;;
47960;SDS011;33721;48.852;9.936;2023-04-03T12:41:30;8.57;;;3.20;;
47960;SDS011;33721;48.852;9.936;2023-04-03T12:47:16;6.97;;;3.20;;
47960;SDS011;33721;48.852;9.936;2023-04-03T12:49:57;9.80;;;3.05;;
47960;SDS011;33721;48.852;9.936;2023-04-03T12:55:07;5.60;;;3.00;;
47960;SDS011;33721;48.852;9.936;2023-04-03T12:57:40;5.63;;;2.92;;
47960;SDS011;33721;48.852;9.936;2023-04-03T13:03:04;5.57;;;2.53;;
47960;SDS011;33721;48.852;9.936;2023-04-03T13:05:44;4.03;;;1.87;;
47960;SDS011;33721;48.852;9.936;2023-04-03T13:08:12;7.30;;;2.70;;
47960;SDS011;33721;48.852;9.936;2023-04-03T13:11:02;6.87;;;3.37;;
47960;SDS011;33721;48.852;9.936;2023-04-03T13:13:28;18.98;;;7.07;;
47960;SDS011;33721;48.852;9.936;2023-04-03T13:15:54;9.45;;;4.07;;
47960;SDS011;33721;48.852;9.936;2023-04-03T13:18:31;8.30;;;3.88;;
47960;SDS011;33721;48.852;9.936;2023-04-03T13:21:01;8.00;;;3.72;;
47960;SDS011;33721;48.852;9.936;2023-04-03T13:23:33;8.63;;;2.92;;
47960;SDS011;33721;48.852;9.936;2023-04-03T13:28:31;6.03;;;3.03;;
47960;SDS011;33721;48.852;9.936;2023-04-03T13:33:55;7.53;;;3.20;;
47960;SDS011;33721;48.852;9.936;2023-04-03T13:36:36;7.55;;;2.95;;
47960;SDS011;33721;48.852;9.936;2023-04-03T13:39:06;6.57;;;3.30;;
47960;SDS011;33721;48.852;9.936;2023-04-03T13:41:50;5.63;;;3.08;;
47960;SDS011;33721;48.852;9.936;2023-04-03T13:46:46;4.93;;;2.33;;
47960;SDS011;33721;48.852;9.936;2023-04-03T13:49:20;5.25;;;2.40;;
47960;SDS011;33721;48.852;9.936;2023-04-03T13:51:51;7.07;;;2.58;;
47960;SDS011;33721;48.852;9.936;2023-04-03T13:54:19;6.00;;;2.70;;
47960;SDS011;33721;48.852;9.936;2023-04-03T13:57:00;5.65;;;2.92;;
47960;SDS011;33721;48.852;9.936;2023-04-03T13:59:31;5.55;;;2.90;;
47960;SDS011;33721;48.852;9.936;2023-04-03T14:04:32;6.70;;;2.47;;
47960;SDS011;33721;48.852;9.936;2023-04-03T14:07:13;4.82;;;2.70;;
47960;SDS011;33721;48.852;9.936;2023-04-03T14:09:39;6.10;;;2.33;;
47960;SDS011;33721;48.852;9.936;2023-04-03T14:12:06;6.82;;;2.65;;
47960;SDS011;33721;48.852;9.936;2023-04-03T14:14:35;6.20;;;2.88;;
47960;SDS011;33721;48.852;9.936;2023-04-03T14:17:03;4.43;;;1.98;;
47960;SDS011;33721;48.852;9.936;2023-04-03T14:19:42;4.50;;;2.38;;
47960;SDS011;33721;48.852;9.936;2023-04-03T14:24:42;6.88;;;2.70;;
47960;SDS011;33721;48.852;9.936;2023-04-03T14:27:22;7.97;;;2.58;;
47960;SDS011;33721;48.852;9.936;2023-04-03T14:29:51;4.85;;;2.60;;
47960;SDS011;33721;48.852;9.936;2023-04-03T14:32:19;5.05;;;2.67;;
47960;SDS011;33721;48.852;9.936;2023-04-03T14:34:47;4.68;;;2.33;;
47960;SDS011;33721;48.852;9.936;2023-04-03T14:37:16;4.80;;;2.60;;
47960;SDS011;33721;48.852;9.936;2023-04-03T14:39:44;7.50;;;2.50;;
47960;SDS011;33721;48.852;9.936;2023-04-03T14:42:15;7.50;;;2.58;;
47960;SDS011;33721;48.852;9.936;2023-04-03T14:44:43;5.88;;;2.83;;
47960;SDS011;33721;48.852;9.936;2023-04-03T14:47:15;6.60;;;2.78;;
47960;SDS011;33721;48.852;9.936;2023-04-03T14:49:44;6.25;;;2.55;;
47960;SDS011;33721;48.852;9.936;2023-04-03T14:52:16;6.32;;;2.63;;
47960;SDS011;33721;48.852;9.936;2023-04-03T14:54:42;6.22;;;2.95;;
47960;SDS011;33721;48.852;9.936;2023-04-03T14:57:08;6.82;;;2.78;;
47960;SDS011;33721;48.852;9.936;2023-04-03T14:59:38;5.85;;;2.53;;
47960;SDS011;33721;48.852;9.936;2023-04-03T15:02:10;5.82;;;2.50;;
47960;SDS011;33721;48.852;9.936;2023-04-03T15:04:53;4.78;;;2.40;;
47960;SDS011;33721;48.852;9.936;2023-04-03T15:07:23;3.88;;;2.10;;
47960;SDS011;33721;48.852;9.936;2023-04-03T15:09:51;3.92;;;2.20;;
47960;SDS011;33721;48.852;9.936;2023-04-03T15:12:17;7.57;;;2.78;;
47960;SDS011;33721;48.852;9.936;2023-04-03T15:14:43;5.78;;;2.42;;
47960;SDS011;33721;48.852;9.936;2023-04-03T15:17:19;7.07;;;2.38;;
47960;SDS011;33721;48.852;9.936;2023-04-03T15:19:47;4.78;;;2.45;;
47960;SDS011;33721;48.852;9.936;2023-04-03T15:22:14;5.30;;;2.33;;
47960;SDS011;33721;48.852;9.936;2023-04-03T15:24:41;6.35;;;3.15;;
47960;SDS011;33721;48.852;9.936;2023-04-03T15:27:08;7.07;;;2.70;;
47960;SDS011;33721;48.852;9.936;2023-04-03T15:29:34;5.68;;;2.33;;
47960;SDS011;33721;48.852;9.936;2023-04-03T15:32:00;4.50;;;2.30;;
47960;SDS011;33721;48.852;9.936;2023-04-03T15:34:25;6.22;;;2.78;;
47960;SDS011;33721;48.852;9.936;2023-04-03T15:36:52;6.50;;;2.75;;
47960;SDS011;33721;48.852;9.936;2023-04-03T15:39:18;5.32;;;3.03;;
47960;SDS011;33721;48.852;9.936;2023-04-03T15:41:43;12.07;;;4.55;;
47960;SDS011;33721;48.852;9.936;2023-04-03T15:44:10;6.30;;;3.03;;
47960;SDS011;33721;48.852;9.936;2023-04-03T15:46:37;5.80;;;2.70;;
47960;SDS011;33721;48.852;9.936;2023-04-03T15:49:03;6.80;;;2.67;;
47960;SDS011;33721;48.852;9.936;2023-04-03T15:51:29;5.15;;;2.75;;
47960;SDS011;33721;48.852;9.936;2023-04-03T15:53:55;8.27;;;3.55;;
47960;SDS011;33721;48.852;9.936;2023-04-03T15:56:21;10.52;;;3.20;;
47960;SDS011;33721;48.852;9.936;2023-04-03T15:58:46;8.52;;;2.95;;
47960;SDS011;33721;48.852;9.936;2023-04-03T16:01:12;9.80;;;3.65;;
47960;SDS011;33721;48.852;9.936;2023-04-03T16:03:39;8.40;;;2.97;;
47960;SDS011;33721;48.852;9.936;2023-04-03T16:06:10;6.82;;;2.72;;
47960;SDS011;33721;48.852;9.936;2023-04-03T16:08:37;5.50;;;2.90;;
47960;SDS011;33721;48.852;9.936;2023-04-03T16:11:02;8.80;;;2.65;;
47960;SDS011;33721;48.852;9.936;2023-04-03T16:13:28;9.45;;;3.17;;
47960;SDS011;33721;48.852;9.936;2023-04-03T16:15:54;9.43;;;4.13;;
47960;SDS011;33721;48.852;9.936;2023-04-03T16:18:20;8.57;;;3.25;;
47960;SDS011;33721;48.852;9.936;2023-04-03T16:20:46;9.10;;;3.20;;
47960;SDS011;33721;48.852;9.936;2023-04-03T16:23:12;6.60;;;3.08;;
47960;SDS011;33721;48.852;9.936;2023-04-03T16:25:38;8.98;;;3.60;;
47960;SDS011;33721;48.852;9.936;2023-04-03T16:28:03;10.75;;;3.90;;
47960;SDS011;33721;48.852;9.936;2023-04-03T16:30:30;10.15;;;3.00;;
47960;SDS011;33721;48.852;9.936;2023-04-03T16:32:56;8.27;;;4.00;;